sensor_id;sensor_type;location;lat;lon;timestamp;P1;durP1;ratioP1;P2;durP2;ratioP2
9807;SDS011;4943;52.550;13.462;2023-01-08T00:01:33;3.20;;;2.60;;
9807;SDS011;4943;52.550;13.462;2023-01-08T00:04:03;4.97;;;2.80;;
9807;SDS011;4943;52.550;13.462;2023-01-08T00:06:32;4.17;;;2.80;;
9807;SDS011;4943;52.550;13.462;2023-01-08T00:09:01;3.03;;;2.43;;
9807;SDS011;4943;52.550;13.462;2023-01-08T00:11:29;3.33;;;2.57;;
9807;SDS011;4943;52.550;13.462;2023-01-08T00:13:58;3.40;;;2.20;;
9807;SDS011;4943;52.550;13.462;2023-01-08T00:16:26;4.37;;;2.30;;
9807;SDS011;4943;52.550;13.462;2023-01-08T00:18:55;3.17;;;2.63;;
9807;SDS011;4943;52.550;13.462;2023-01-08T00:21:25;2.80;;;1.97;;
9807;SDS011;4943;52.550;13.462;2023-01-08T00:23:53;3.00;;;2.60;;
9807;SDS011;4943;52.550;13.462;2023-01-08T00:26:22;3.83;;;2.90;;
9807;SDS011;4943;52.550;13.462;2023-01-08T00:28:51;3.87;;;2.37;;
9807;SDS011;4943;52.550;13.462;2023-01-08T00:31:19;2.80;;;2.33;;
9807;SDS011;4943;52.550;13.462;2023-01-08T00:33:48;8.47;;;2.73;;
9807;SDS011;4943;52.550;13.462;2023-01-08T00:36:17;2.93;;;2.47;;
9807;SDS011;4943;52.550;13.462;2023-01-08T00:38:47;5.07;;;2.60;;
9807;SDS011;4943;52.550;13.462;2023-01-08T00:41:15;4.47;;;2.80;;
9807;SDS011;4943;52.550;13.462;2023-01-08T00:43:45;3.77;;;2.80;;
9807;SDS011;4943;52.550;13.462;2023-01-08T00:46:14;3.27;;;2.50;;
9807;SDS011;4943;52.550;13.462;2023-01-08T00:48:42;3.17;;;2.53;;
9807;SDS011;4943;52.550;13.462;2023-01-08T00:51:11;3.57;;;2.53;;
9807;SDS011;4943;52.550;13.462;2023-01-08T00:53:40;3.70;;;2.57;;
9807;SDS011;4943;52.550;13.462;2023-01-08T00:56:09;3.30;;;2.57;;
9807;SDS011;4943;52.550;13.462;2023-01-08T00:58:38;3.40;;;2.40;;
9807;SDS011;4943;52.550;13.462;2023-01-08T01:01:10;3.30;;;2.63;;
9807;SDS011;4943;52.550;13.462;2023-01-08T01:03:40;3.50;;;2.80;;
9807;SDS011;4943;52.550;13.462;2023-01-08T01:06:10;2.90;;;2.47;;
9807;SDS011;4943;52.550;13.462;2023-01-08T01:08:39;3.00;;;2.60;;
9807;SDS011;4943;52.550;13.462;2023-01-08T01:11:12;3.73;;;2.80;;
9807;SDS011;4943;52.550;13.462;2023-01-08T01:13:45;3.60;;;2.83;;
9807;SDS011;4943;52.550;13.462;2023-01-08T01:16:14;2.90;;;2.53;;
9807;SDS011;4943;52.550;13.462;2023-01-08T01:18:42;5.07;;;3.50;;
9807;SDS011;4943;52.550;13.462;2023-01-08T01:21:11;3.87;;;3.17;;
9807;SDS011;4943;52.550;13.462;2023-01-08T01:23:45;3.90;;;2.90;;
9807;SDS011;4943;52.550;13.462;2023-01-08T01:26:16;3.60;;;3.00;;
9807;SDS011;4943;52.550;13.462;2023-01-08T01:28:52;3.87;;;3.07;;
9807;SDS011;4943;52.550;13.462;2023-01-08T01:31:21;4.30;;;2.90;;
9807;SDS011;4943;52.550;13.462;2023-01-08T01:33:50;3.33;;;2.60;;
9807;SDS011;4943;52.550;13.462;2023-01-08T01:36:20;3.63;;;3.00;;
9807;SDS011;4943;52.550;13.462;2023-01-08T01:38:51;3.63;;;2.60;;
9807;SDS011;4943;52.550;13.462;2023-01-08T01:41:24;5.13;;;3.20;;
9807;SDS011;4943;52.550;13.462;2023-01-08T01:43:54;3.60;;;2.80;;
9807;SDS011;4943;52.550;13.462;2023-01-08T01:46:25;3.40;;;2.70;;
9807;SDS011;4943;52.550;13.462;2023-01-08T01:49:02;4.30;;;3.20;;
9807;SDS011;4943;52.550;13.462;2023-01-08T01:51:35;4.40;;;2.80;;
9807;SDS011;4943;52.550;13.462;2023-01-08T01:54:06;4.23;;;2.90;;
9807;SDS011;4943;52.550;13.462;2023-01-08T01:56:39;3.97;;;3.07;;
9807;SDS011;4943;52.550;13.462;2023-01-08T01:59:09;5.70;;;3.13;;
9807;SDS011;4943;52.550;13.462;2023-01-08T02:01:38;3.90;;;2.83;;
9807;SDS011;4943;52.550;13.462;2023-01-08T02:04:08;4.23;;;3.20;;
9807;SDS011;4943;52.550;13.462;2023-01-08T02:06:39;4.90;;;3.17;;
9807;SDS011;4943;52.550;13.462;2023-01-08T02:09:13;3.27;;;2.90;;
9807;SDS011;4943;52.550;13.462;2023-01-08T02:11:52;7.27;;;2.77;;
9807;SDS011;4943;52.550;13.462;2023-01-08T02:14:41;3.83;;;3.00;;
9807;SDS011;4943;52.550;13.462;2023-01-08T02:17:15;3.17;;;2.87;;
9807;SDS011;4943;52.550;13.462;2023-01-08T02:19:51;3.67;;;2.70;;
9807;SDS011;4943;52.550;13.462;2023-01-08T02:22:29;3.30;;;2.90;;
9807;SDS011;4943;52.550;13.462;2023-01-08T02:25:09;3.53;;;3.23;;
9807;SDS011;4943;52.550;13.462;2023-01-08T02:27:46;4.00;;;3.17;;
9807;SDS011;4943;52.550;13.462;2023-01-08T02:30:17;3.33;;;3.00;;
9807;SDS011;4943;52.550;13.462;2023-01-08T02:32:46;5.83;;;3.67;;
9807;SDS011;4943;52.550;13.462;2023-01-08T02:35:14;5.77;;;3.50;;
9807;SDS011;4943;52.550;13.462;2023-01-08T02:37:43;5.10;;;3.47;;
9807;SDS011;4943;52.550;13.462;2023-01-08T02:40:18;4.60;;;3.30;;
9807;SDS011;4943;52.550;13.462;2023-01-08T02:42:55;3.50;;;3.10;;
9807;SDS011;4943;52.550;13.462;2023-01-08T02:45:30;3.93;;;3.00;;
9807;SDS011;4943;52.550;13.462;2023-01-08T02:48:06;5.93;;;3.57;;
9807;SDS011;4943;52.550;13.462;2023-01-08T02:50:38;5.63;;;3.43;;
9807;SDS011;4943;52.550;13.462;2023-01-08T02:53:11;5.03;;;3.27;;
9807;SDS011;4943;52.550;13.462;2023-01-08T02:55:44;6.40;;;3.87;;
9807;SDS011;4943;52.550;13.462;2023-01-08T02:58:17;4.73;;;3.00;;
9807;SDS011;4943;52.550;13.462;2023-01-08T03:00:47;4.40;;;3.40;;
9807;SDS011;4943;52.550;13.462;2023-01-08T03:03:17;5.13;;;3.27;;
9807;SDS011;4943;52.550;13.462;2023-01-08T03:05:50;5.60;;;3.10;;
9807;SDS011;4943;52.550;13.462;2023-01-08T03:08:21;4.90;;;3.17;;
9807;SDS011;4943;52.550;13.462;2023-01-08T03:10:52;4.57;;;3.53;;
9807;SDS011;4943;52.550;13.462;2023-01-08T03:13:28;5.07;;;3.57;;
9807;SDS011;4943;52.550;13.462;2023-01-08T03:16:02;3.87;;;3.20;;
9807;SDS011;4943;52.550;13.462;2023-01-08T03:18:38;6.47;;;3.80;;
9807;SDS011;4943;52.550;13.462;2023-01-08T03:21:10;4.93;;;3.23;;
9807;SDS011;4943;52.550;13.462;2023-01-08T03:23:39;3.97;;;3.27;;
9807;SDS011;4943;52.550;13.462;2023-01-08T03:26:10;4.00;;;3.60;;
9807;SDS011;4943;52.550;13.462;2023-01-08T03:28:44;4.77;;;3.70;;
9807;SDS011;4943;52.550;13.462;2023-01-08T03:31:16;5.10;;;3.57;;
9807;SDS011;4943;52.550;13.462;2023-01-08T03:33:45;5.40;;;3.70;;
9807;SDS011;4943;52.550;13.462;2023-01-08T03:36:17;4.33;;;3.20;;
9807;SDS011;4943;52.550;13.462;2023-01-08T03:38:51;4.23;;;3.07;;
9807;SDS011;4943;52.550;13.462;2023-01-08T03:41:23;5.30;;;3.70;;
9807;SDS011;4943;52.550;13.462;2023-01-08T03:43:56;3.83;;;3.30;;
9807;SDS011;4943;52.550;13.462;2023-01-08T03:46:25;4.00;;;3.37;;
9807;SDS011;4943;52.550;13.462;2023-01-08T03:48:58;4.23;;;3.50;;
9807;SDS011;4943;52.550;13.462;2023-01-08T03:51:27;6.30;;;3.70;;
9807;SDS011;4943;52.550;13.462;2023-01-08T03:53:56;4.73;;;3.43;;
9807;SDS011;4943;52.550;13.462;2023-01-08T03:56:26;4.77;;;3.60;;
9807;SDS011;4943;52.550;13.462;2023-01-08T03:58:56;4.87;;;3.53;;
9807;SDS011;4943;52.550;13.462;2023-01-08T04:01:24;4.27;;;3.53;;
9807;SDS011;4943;52.550;13.462;2023-01-08T04:03:53;5.00;;;3.70;;
9807;SDS011;4943;52.550;13.462;2023-01-08T04:06:21;4.20;;;3.20;;
9807;SDS011;4943;52.550;13.462;2023-01-08T04:08:50;4.27;;;3.47;;
9807;SDS011;4943;52.550;13.462;2023-01-08T04:11:18;4.93;;;3.63;;
9807;SDS011;4943;52.550;13.462;2023-01-08T04:13:47;5.60;;;3.80;;
9807;SDS011;4943;52.550;13.462;2023-01-08T04:16:16;5.20;;;3.50;;
9807;SDS011;4943;52.550;13.462;2023-01-08T04:18:45;3.60;;;2.80;;
9807;SDS011;4943;52.550;13.462;2023-01-08T04:21:13;4.93;;;3.57;;
9807;SDS011;4943;52.550;13.462;2023-01-08T04:23:42;5.53;;;3.57;;
9807;SDS011;4943;52.550;13.462;2023-01-08T04:26:10;7.20;;;3.47;;
9807;SDS011;4943;52.550;13.462;2023-01-08T04:28:39;5.00;;;3.70;;
9807;SDS011;4943;52.550;13.462;2023-01-08T04:31:07;4.20;;;3.33;;
9807;SDS011;4943;52.550;13.462;2023-01-08T04:33:38;4.67;;;3.47;;
9807;SDS011;4943;52.550;13.462;2023-01-08T04:36:07;5.17;;;3.67;;
9807;SDS011;4943;52.550;13.462;2023-01-08T04:38:36;5.63;;;3.70;;
9807;SDS011;4943;52.550;13.462;2023-01-08T04:41:05;3.80;;;3.37;;
9807;SDS011;4943;52.550;13.462;2023-01-08T04:43:33;6.03;;;3.80;;
9807;SDS011;4943;52.550;13.462;2023-01-08T04:46:03;5.17;;;3.57;;
9807;SDS011;4943;52.550;13.462;2023-01-08T04:48:33;5.20;;;3.67;;
9807;SDS011;4943;52.550;13.462;2023-01-08T04:51:03;4.17;;;3.57;;
9807;SDS011;4943;52.550;13.462;2023-01-08T04:53:33;5.80;;;3.80;;
9807;SDS011;4943;52.550;13.462;2023-01-08T04:56:03;5.60;;;3.50;;
9807;SDS011;4943;52.550;13.462;2023-01-08T04:58:32;5.37;;;3.60;;
9807;SDS011;4943;52.550;13.462;2023-01-08T05:01:08;5.20;;;3.50;;
9807;SDS011;4943;52.550;13.462;2023-01-08T05:03:38;4.30;;;3.23;;
9807;SDS011;4943;52.550;13.462;2023-01-08T05:06:08;4.67;;;3.30;;
9807;SDS011;4943;52.550;13.462;2023-01-08T05:08:37;5.00;;;3.70;;
9807;SDS011;4943;52.550;13.462;2023-01-08T05:11:05;5.23;;;3.43;;
9807;SDS011;4943;52.550;13.462;2023-01-08T05:13:34;4.70;;;2.97;;
9807;SDS011;4943;52.550;13.462;2023-01-08T05:16:02;4.27;;;3.50;;
9807;SDS011;4943;52.550;13.462;2023-01-08T05:18:31;5.37;;;3.60;;
9807;SDS011;4943;52.550;13.462;2023-01-08T05:21:00;5.73;;;4.20;;
9807;SDS011;4943;52.550;13.462;2023-01-08T05:23:32;4.13;;;3.40;;
9807;SDS011;4943;52.550;13.462;2023-01-08T05:26:01;4.43;;;3.40;;
9807;SDS011;4943;52.550;13.462;2023-01-08T05:28:31;4.47;;;3.17;;
9807;SDS011;4943;52.550;13.462;2023-01-08T05:31:00;4.47;;;3.47;;
9807;SDS011;4943;52.550;13.462;2023-01-08T05:33:29;5.00;;;3.90;;
9807;SDS011;4943;52.550;13.462;2023-01-08T05:35:58;3.90;;;2.90;;
9807;SDS011;4943;52.550;13.462;2023-01-08T05:38:26;3.63;;;3.30;;
9807;SDS011;4943;52.550;13.462;2023-01-08T05:40:56;4.40;;;2.73;;
9807;SDS011;4943;52.550;13.462;2023-01-08T05:43:24;4.20;;;3.27;;
9807;SDS011;4943;52.550;13.462;2023-01-08T05:45:53;5.67;;;3.67;;
9807;SDS011;4943;52.550;13.462;2023-01-08T05:48:21;4.60;;;3.63;;
9807;SDS011;4943;52.550;13.462;2023-01-08T05:50:49;6.53;;;3.33;;
9807;SDS011;4943;52.550;13.462;2023-01-08T05:53:18;5.13;;;3.67;;
9807;SDS011;4943;52.550;13.462;2023-01-08T05:55:46;5.07;;;3.20;;
9807;SDS011;4943;52.550;13.462;2023-01-08T05:58:16;7.80;;;3.80;;
9807;SDS011;4943;52.550;13.462;2023-01-08T06:00:45;4.90;;;3.27;;
9807;SDS011;4943;52.550;13.462;2023-01-08T06:03:13;4.93;;;3.10;;
9807;SDS011;4943;52.550;13.462;2023-01-08T06:05:42;5.50;;;3.50;;
9807;SDS011;4943;52.550;13.462;2023-01-08T06:08:10;3.90;;;3.17;;
9807;SDS011;4943;52.550;13.462;2023-01-08T06:10:39;4.43;;;3.50;;
9807;SDS011;4943;52.550;13.462;2023-01-08T06:13:07;4.00;;;2.90;;
9807;SDS011;4943;52.550;13.462;2023-01-08T06:15:37;3.67;;;3.20;;
9807;SDS011;4943;52.550;13.462;2023-01-08T06:18:06;4.77;;;3.87;;
9807;SDS011;4943;52.550;13.462;2023-01-08T06:20:35;5.13;;;3.60;;
9807;SDS011;4943;52.550;13.462;2023-01-08T06:23:03;3.63;;;2.97;;
9807;SDS011;4943;52.550;13.462;2023-01-08T06:25:31;5.23;;;3.33;;
9807;SDS011;4943;52.550;13.462;2023-01-08T06:28:00;5.40;;;3.63;;
9807;SDS011;4943;52.550;13.462;2023-01-08T06:30:28;4.60;;;3.20;;
9807;SDS011;4943;52.550;13.462;2023-01-08T06:32:59;4.23;;;3.37;;
9807;SDS011;4943;52.550;13.462;2023-01-08T06:35:28;3.83;;;3.20;;
9807;SDS011;4943;52.550;13.462;2023-01-08T06:37:57;4.10;;;3.20;;
9807;SDS011;4943;52.550;13.462;2023-01-08T06:40:25;5.20;;;3.40;;
9807;SDS011;4943;52.550;13.462;2023-01-08T06:42:54;3.20;;;2.83;;
9807;SDS011;4943;52.550;13.462;2023-01-08T06:45:22;6.50;;;3.13;;
9807;SDS011;4943;52.550;13.462;2023-01-08T06:47:50;4.93;;;3.53;;
9807;SDS011;4943;52.550;13.462;2023-01-08T06:50:20;4.20;;;3.00;;
9807;SDS011;4943;52.550;13.462;2023-01-08T06:52:51;3.87;;;3.13;;
9807;SDS011;4943;52.550;13.462;2023-01-08T06:55:20;3.50;;;3.20;;
9807;SDS011;4943;52.550;13.462;2023-01-08T06:57:52;4.40;;;3.30;;
9807;SDS011;4943;52.550;13.462;2023-01-08T07:00:20;4.30;;;3.17;;
9807;SDS011;4943;52.550;13.462;2023-01-08T07:02:51;4.27;;;3.20;;
9807;SDS011;4943;52.550;13.462;2023-01-08T07:05:22;5.53;;;3.40;;
9807;SDS011;4943;52.550;13.462;2023-01-08T07:07:50;4.97;;;3.40;;
9807;SDS011;4943;52.550;13.462;2023-01-08T07:10:19;4.73;;;3.20;;
9807;SDS011;4943;52.550;13.462;2023-01-08T07:12:47;3.97;;;3.00;;
9807;SDS011;4943;52.550;13.462;2023-01-08T07:15:16;6.67;;;2.87;;
9807;SDS011;4943;52.550;13.462;2023-01-08T07:17:44;5.03;;;3.20;;
9807;SDS011;4943;52.550;13.462;2023-01-08T07:20:13;4.10;;;2.90;;
9807;SDS011;4943;52.550;13.462;2023-01-08T07:22:43;5.43;;;3.17;;
9807;SDS011;4943;52.550;13.462;2023-01-08T07:25:11;3.87;;;3.27;;
9807;SDS011;4943;52.550;13.462;2023-01-08T07:27:40;3.50;;;3.00;;
9807;SDS011;4943;52.550;13.462;2023-01-08T07:30:08;3.87;;;3.03;;
9807;SDS011;4943;52.550;13.462;2023-01-08T07:32:56;3.67;;;2.63;;
9807;SDS011;4943;52.550;13.462;2023-01-08T07:35:26;3.13;;;2.83;;
9807;SDS011;4943;52.550;13.462;2023-01-08T07:37:55;2.93;;;2.60;;
9807;SDS011;4943;52.550;13.462;2023-01-08T07:40:24;3.33;;;2.77;;
9807;SDS011;4943;52.550;13.462;2023-01-08T07:42:56;3.20;;;2.57;;
9807;SDS011;4943;52.550;13.462;2023-01-08T07:45:25;3.97;;;3.10;;
9807;SDS011;4943;52.550;13.462;2023-01-08T07:47:55;3.27;;;2.57;;
9807;SDS011;4943;52.550;13.462;2023-01-08T07:50:24;2.77;;;2.40;;
9807;SDS011;4943;52.550;13.462;2023-01-08T07:52:56;3.80;;;2.80;;
9807;SDS011;4943;52.550;13.462;2023-01-08T07:55:25;3.20;;;2.90;;
9807;SDS011;4943;52.550;13.462;2023-01-08T07:57:55;2.80;;;2.40;;
9807;SDS011;4943;52.550;13.462;2023-01-08T08:00:23;5.50;;;2.70;;
9807;SDS011;4943;52.550;13.462;2023-01-08T08:02:52;3.10;;;2.57;;
9807;SDS011;4943;52.550;13.462;2023-01-08T08:05:20;3.33;;;2.50;;
9807;SDS011;4943;52.550;13.462;2023-01-08T08:07:50;4.27;;;3.30;;
9807;SDS011;4943;52.550;13.462;2023-01-08T08:10:20;4.60;;;3.33;;
9807;SDS011;4943;52.550;13.462;2023-01-08T08:12:48;3.77;;;3.00;;
9807;SDS011;4943;52.550;13.462;2023-01-08T08:15:17;2.93;;;2.57;;
9807;SDS011;4943;52.550;13.462;2023-01-08T08:17:45;3.17;;;2.80;;
9807;SDS011;4943;52.550;13.462;2023-01-08T08:20:14;4.50;;;3.00;;
9807;SDS011;4943;52.550;13.462;2023-01-08T08:22:43;5.80;;;3.70;;
9807;SDS011;4943;52.550;13.462;2023-01-08T08:25:11;4.27;;;2.87;;
9807;SDS011;4943;52.550;13.462;2023-01-08T08:27:42;4.53;;;3.43;;
9807;SDS011;4943;52.550;13.462;2023-01-08T08:30:11;4.67;;;3.17;;
9807;SDS011;4943;52.550;13.462;2023-01-08T08:32:40;3.87;;;3.07;;
9807;SDS011;4943;52.550;13.462;2023-01-08T08:35:09;4.77;;;2.90;;
9807;SDS011;4943;52.550;13.462;2023-01-08T08:37:37;5.23;;;3.30;;
9807;SDS011;4943;52.550;13.462;2023-01-08T08:40:06;4.00;;;3.17;;
9807;SDS011;4943;52.550;13.462;2023-01-08T08:42:35;5.43;;;3.50;;
9807;SDS011;4943;52.550;13.462;2023-01-08T08:45:06;6.93;;;2.83;;
9807;SDS011;4943;52.550;13.462;2023-01-08T08:47:35;4.90;;;3.07;;
9807;SDS011;4943;52.550;13.462;2023-01-08T08:50:03;3.73;;;2.90;;
9807;SDS011;4943;52.550;13.462;2023-01-08T08:52:33;4.57;;;3.37;;
9807;SDS011;4943;52.550;13.462;2023-01-08T08:55:03;3.60;;;2.93;;
9807;SDS011;4943;52.550;13.462;2023-01-08T08:57:32;3.40;;;3.10;;
9807;SDS011;4943;52.550;13.462;2023-01-08T09:00:00;4.57;;;3.23;;
9807;SDS011;4943;52.550;13.462;2023-01-08T09:02:30;3.73;;;3.17;;
9807;SDS011;4943;52.550;13.462;2023-01-08T09:04:59;3.87;;;3.30;;
9807;SDS011;4943;52.550;13.462;2023-01-08T09:07:27;3.30;;;2.60;;
9807;SDS011;4943;52.550;13.462;2023-01-08T09:09:56;3.90;;;2.90;;
9807;SDS011;4943;52.550;13.462;2023-01-08T09:12:24;4.63;;;2.90;;
9807;SDS011;4943;52.550;13.462;2023-01-08T09:14:53;4.43;;;3.13;;
9807;SDS011;4943;52.550;13.462;2023-01-08T09:17:22;3.60;;;2.90;;
9807;SDS011;4943;52.550;13.462;2023-01-08T09:19:53;3.17;;;2.70;;
9807;SDS011;4943;52.550;13.462;2023-01-08T09:22:21;5.20;;;2.97;;
9807;SDS011;4943;52.550;13.462;2023-01-08T09:24:50;3.40;;;3.10;;
9807;SDS011;4943;52.550;13.462;2023-01-08T09:27:22;3.37;;;2.97;;
9807;SDS011;4943;52.550;13.462;2023-01-08T09:29:51;4.53;;;2.93;;
9807;SDS011;4943;52.550;13.462;2023-01-08T09:32:19;3.50;;;2.67;;
9807;SDS011;4943;52.550;13.462;2023-01-08T09:34:48;4.33;;;3.10;;
9807;SDS011;4943;52.550;13.462;2023-01-08T09:37:18;3.53;;;2.60;;
9807;SDS011;4943;52.550;13.462;2023-01-08T09:39:48;5.53;;;2.70;;
9807;SDS011;4943;52.550;13.462;2023-01-08T09:42:27;4.73;;;2.97;;
9807;SDS011;4943;52.550;13.462;2023-01-08T09:44:57;4.60;;;3.17;;
9807;SDS011;4943;52.550;13.462;2023-01-08T09:47:30;3.53;;;3.13;;
9807;SDS011;4943;52.550;13.462;2023-01-08T09:50:01;4.43;;;2.83;;
9807;SDS011;4943;52.550;13.462;2023-01-08T09:52:34;3.77;;;2.80;;
9807;SDS011;4943;52.550;13.462;2023-01-08T09:55:08;3.40;;;2.70;;
9807;SDS011;4943;52.550;13.462;2023-01-08T09:57:39;3.73;;;2.77;;
9807;SDS011;4943;52.550;13.462;2023-01-08T10:00:11;3.97;;;2.93;;
9807;SDS011;4943;52.550;13.462;2023-01-08T10:02:41;4.00;;;3.00;;
9807;SDS011;4943;52.550;13.462;2023-01-08T10:05:11;3.37;;;2.87;;
9807;SDS011;4943;52.550;13.462;2023-01-08T10:07:44;4.93;;;3.00;;
9807;SDS011;4943;52.550;13.462;2023-01-08T10:10:17;4.63;;;3.23;;
9807;SDS011;4943;52.550;13.462;2023-01-08T10:12:48;4.23;;;2.73;;
9807;SDS011;4943;52.550;13.462;2023-01-08T10:15:18;3.73;;;3.23;;
9807;SDS011;4943;52.550;13.462;2023-01-08T10:17:52;4.27;;;3.17;;
9807;SDS011;4943;52.550;13.462;2023-01-08T10:20:26;3.70;;;2.80;;
9807;SDS011;4943;52.550;13.462;2023-01-08T10:22:56;3.40;;;2.87;;
9807;SDS011;4943;52.550;13.462;2023-01-08T10:25:46;3.90;;;2.60;;
9807;SDS011;4943;52.550;13.462;2023-01-08T10:28:20;3.53;;;2.77;;
9807;SDS011;4943;52.550;13.462;2023-01-08T10:30:50;3.27;;;2.87;;
9807;SDS011;4943;52.550;13.462;2023-01-08T10:33:22;3.90;;;2.63;;
9807;SDS011;4943;52.550;13.462;2023-01-08T10:35:56;2.83;;;2.63;;
9807;SDS011;4943;52.550;13.462;2023-01-08T10:38:29;5.00;;;3.03;;
9807;SDS011;4943;52.550;13.462;2023-01-08T10:41:00;3.10;;;2.80;;
9807;SDS011;4943;52.550;13.462;2023-01-08T10:43:35;5.27;;;2.83;;
9807;SDS011;4943;52.550;13.462;2023-01-08T10:46:12;4.73;;;2.90;;
9807;SDS011;4943;52.550;13.462;2023-01-08T10:48:46;4.17;;;2.93;;
9807;SDS011;4943;52.550;13.462;2023-01-08T10:51:20;3.37;;;2.87;;
9807;SDS011;4943;52.550;13.462;2023-01-08T10:53:53;5.03;;;3.50;;
9807;SDS011;4943;52.550;13.462;2023-01-08T10:56:23;3.63;;;2.87;;
9807;SDS011;4943;52.550;13.462;2023-01-08T10:58:53;4.33;;;3.17;;
9807;SDS011;4943;52.550;13.462;2023-01-08T11:01:22;3.70;;;2.93;;
9807;SDS011;4943;52.550;13.462;2023-01-08T11:03:53;4.13;;;3.00;;
9807;SDS011;4943;52.550;13.462;2023-01-08T11:06:25;4.43;;;3.00;;
9807;SDS011;4943;52.550;13.462;2023-01-08T11:08:57;5.33;;;3.60;;
9807;SDS011;4943;52.550;13.462;2023-01-08T11:11:31;4.20;;;3.00;;
9807;SDS011;4943;52.550;13.462;2023-01-08T11:14:01;4.77;;;3.27;;
9807;SDS011;4943;52.550;13.462;2023-01-08T11:16:32;3.77;;;3.37;;
9807;SDS011;4943;52.550;13.462;2023-01-08T11:19:03;4.30;;;3.30;;
9807;SDS011;4943;52.550;13.462;2023-01-08T11:21:41;5.13;;;3.50;;
9807;SDS011;4943;52.550;13.462;2023-01-08T11:24:29;4.60;;;2.97;;
9807;SDS011;4943;52.550;13.462;2023-01-08T11:27:02;4.63;;;3.47;;
9807;SDS011;4943;52.550;13.462;2023-01-08T11:29:35;4.77;;;3.27;;
9807;SDS011;4943;52.550;13.462;2023-01-08T11:35:03;4.70;;;3.37;;
9807;SDS011;4943;52.550;13.462;2023-01-08T11:37:37;5.33;;;3.60;;
9807;SDS011;4943;52.550;13.462;2023-01-08T11:40:12;4.20;;;3.20;;
9807;SDS011;4943;52.550;13.462;2023-01-08T11:42:45;4.03;;;3.30;;
9807;SDS011;4943;52.550;13.462;2023-01-08T11:45:23;6.23;;;3.20;;
9807;SDS011;4943;52.550;13.462;2023-01-08T11:48:13;4.20;;;3.20;;
9807;SDS011;4943;52.550;13.462;2023-01-08T11:51:01;5.83;;;3.60;;
9807;SDS011;4943;52.550;13.462;2023-01-08T11:53:50;3.80;;;3.23;;
9807;SDS011;4943;52.550;13.462;2023-01-08T11:56:30;4.00;;;3.10;;
9807;SDS011;4943;52.550;13.462;2023-01-08T11:59:11;5.43;;;3.53;;
9807;SDS011;4943;52.550;13.462;2023-01-08T12:01:48;4.10;;;3.50;;
9807;SDS011;4943;52.550;13.462;2023-01-08T12:04:40;4.37;;;3.47;;
9807;SDS011;4943;52.550;13.462;2023-01-08T12:07:26;5.40;;;3.40;;
9807;SDS011;4943;52.550;13.462;2023-01-08T12:10:03;6.00;;;3.80;;
9807;SDS011;4943;52.550;13.462;2023-01-08T12:12:48;5.37;;;3.63;;
9807;SDS011;4943;52.550;13.462;2023-01-08T12:15:26;6.87;;;4.40;;
9807;SDS011;4943;52.550;13.462;2023-01-08T12:18:18;5.50;;;3.57;;
9807;SDS011;4943;52.550;13.462;2023-01-08T12:21:04;6.00;;;3.83;;
9807;SDS011;4943;52.550;13.462;2023-01-08T12:23:45;7.77;;;3.43;;
9807;SDS011;4943;52.550;13.462;2023-01-08T12:26:26;5.20;;;3.60;;
9807;SDS011;4943;52.550;13.462;2023-01-08T12:29:06;4.97;;;3.43;;
9807;SDS011;4943;52.550;13.462;2023-01-08T12:31:55;4.53;;;3.00;;
9807;SDS011;4943;52.550;13.462;2023-01-08T12:34:46;4.73;;;3.20;;
9807;SDS011;4943;52.550;13.462;2023-01-08T12:37:21;4.90;;;3.47;;
9807;SDS011;4943;52.550;13.462;2023-01-08T12:39:54;5.60;;;3.60;;
9807;SDS011;4943;52.550;13.462;2023-01-08T12:42:29;5.83;;;3.60;;
9807;SDS011;4943;52.550;13.462;2023-01-08T12:45:02;4.13;;;3.27;;
9807;SDS011;4943;52.550;13.462;2023-01-08T12:47:39;4.10;;;3.10;;
9807;SDS011;4943;52.550;13.462;2023-01-08T12:50:18;3.80;;;3.13;;
9807;SDS011;4943;52.550;13.462;2023-01-08T12:52:51;3.57;;;3.00;;
9807;SDS011;4943;52.550;13.462;2023-01-08T12:55:26;4.03;;;3.50;;
9807;SDS011;4943;52.550;13.462;2023-01-08T12:58:05;3.77;;;3.10;;
9807;SDS011;4943;52.550;13.462;2023-01-08T13:00:45;3.90;;;3.47;;
9807;SDS011;4943;52.550;13.462;2023-01-08T13:03:21;3.57;;;3.20;;
9807;SDS011;4943;52.550;13.462;2023-01-08T13:06:03;5.73;;;3.33;;
9807;SDS011;4943;52.550;13.462;2023-01-08T13:08:35;4.17;;;2.83;;
9807;SDS011;4943;52.550;13.462;2023-01-08T13:11:04;4.03;;;3.20;;
9807;SDS011;4943;52.550;13.462;2023-01-08T13:13:34;5.40;;;3.80;;
9807;SDS011;4943;52.550;13.462;2023-01-08T13:16:15;5.63;;;3.53;;
9807;SDS011;4943;52.550;13.462;2023-01-08T13:18:50;3.43;;;3.07;;
9807;SDS011;4943;52.550;13.462;2023-01-08T13:21:26;6.00;;;3.73;;
9807;SDS011;4943;52.550;13.462;2023-01-08T13:24:02;5.27;;;3.80;;
9807;SDS011;4943;52.550;13.462;2023-01-08T13:26:34;4.53;;;3.30;;
9807;SDS011;4943;52.550;13.462;2023-01-08T13:29:07;5.90;;;3.33;;
9807;SDS011;4943;52.550;13.462;2023-01-08T13:31:53;5.60;;;3.77;;
9807;SDS011;4943;52.550;13.462;2023-01-08T13:34:22;3.90;;;3.43;;
9807;SDS011;4943;52.550;13.462;2023-01-08T13:37:04;3.93;;;3.17;;
9807;SDS011;4943;52.550;13.462;2023-01-08T13:39:41;6.90;;;3.73;;
9807;SDS011;4943;52.550;13.462;2023-01-08T13:42:19;7.93;;;5.27;;
9807;SDS011;4943;52.550;13.462;2023-01-08T13:44:50;5.87;;;4.20;;
9807;SDS011;4943;52.550;13.462;2023-01-08T13:47:26;4.77;;;3.30;;
9807;SDS011;4943;52.550;13.462;2023-01-08T13:49:58;4.70;;;3.70;;
9807;SDS011;4943;52.550;13.462;2023-01-08T13:52:31;6.60;;;3.63;;
9807;SDS011;4943;52.550;13.462;2023-01-08T13:55:03;5.60;;;4.27;;
9807;SDS011;4943;52.550;13.462;2023-01-08T13:57:38;5.40;;;4.10;;
9807;SDS011;4943;52.550;13.462;2023-01-08T14:00:16;4.73;;;3.73;;
9807;SDS011;4943;52.550;13.462;2023-01-08T14:02:50;5.50;;;3.87;;
9807;SDS011;4943;52.550;13.462;2023-01-08T14:05:21;7.17;;;4.60;;
9807;SDS011;4943;52.550;13.462;2023-01-08T14:07:52;5.37;;;4.47;;
9807;SDS011;4943;52.550;13.462;2023-01-08T14:10:21;5.57;;;4.00;;
9807;SDS011;4943;52.550;13.462;2023-01-08T14:12:50;4.33;;;3.63;;
9807;SDS011;4943;52.550;13.462;2023-01-08T14:15:20;6.37;;;4.37;;
9807;SDS011;4943;52.550;13.462;2023-01-08T14:17:52;5.07;;;3.90;;
9807;SDS011;4943;52.550;13.462;2023-01-08T14:20:26;6.33;;;4.03;;
9807;SDS011;4943;52.550;13.462;2023-01-08T14:22:58;5.97;;;3.80;;
9807;SDS011;4943;52.550;13.462;2023-01-08T14:25:27;5.60;;;4.30;;
9807;SDS011;4943;52.550;13.462;2023-01-08T14:27:57;5.40;;;4.33;;
9807;SDS011;4943;52.550;13.462;2023-01-08T14:30:27;5.93;;;3.70;;
9807;SDS011;4943;52.550;13.462;2023-01-08T14:32:58;5.40;;;3.87;;
9807;SDS011;4943;52.550;13.462;2023-01-08T14:35:28;4.77;;;3.60;;
9807;SDS011;4943;52.550;13.462;2023-01-08T14:37:59;5.10;;;3.93;;
9807;SDS011;4943;52.550;13.462;2023-01-08T14:40:32;7.83;;;5.20;;
9807;SDS011;4943;52.550;13.462;2023-01-08T14:43:07;7.10;;;4.90;;
9807;SDS011;4943;52.550;13.462;2023-01-08T14:45:39;6.47;;;4.77;;
9807;SDS011;4943;52.550;13.462;2023-01-08T14:48:17;6.37;;;4.23;;
9807;SDS011;4943;52.550;13.462;2023-01-08T14:50:55;5.37;;;4.20;;
9807;SDS011;4943;52.550;13.462;2023-01-08T14:53:28;5.30;;;4.10;;
9807;SDS011;4943;52.550;13.462;2023-01-08T14:55:59;5.13;;;4.40;;
9807;SDS011;4943;52.550;13.462;2023-01-08T14:58:32;7.03;;;3.97;;
9807;SDS011;4943;52.550;13.462;2023-01-08T15:01:04;5.40;;;4.00;;
9807;SDS011;4943;52.550;13.462;2023-01-08T15:03:37;5.53;;;4.07;;
9807;SDS011;4943;52.550;13.462;2023-01-08T15:06:08;7.03;;;4.80;;
9807;SDS011;4943;52.550;13.462;2023-01-08T15:08:38;6.63;;;4.63;;
9807;SDS011;4943;52.550;13.462;2023-01-08T15:11:10;7.97;;;4.70;;
9807;SDS011;4943;52.550;13.462;2023-01-08T15:13:49;6.60;;;4.73;;
9807;SDS011;4943;52.550;13.462;2023-01-08T15:16:19;4.87;;;3.83;;
9807;SDS011;4943;52.550;13.462;2023-01-08T15:18:59;6.40;;;4.30;;
9807;SDS011;4943;52.550;13.462;2023-01-08T15:21:30;6.17;;;4.00;;
9807;SDS011;4943;52.550;13.462;2023-01-08T15:23:59;8.87;;;4.53;;
9807;SDS011;4943;52.550;13.462;2023-01-08T15:26:30;6.23;;;4.37;;
9807;SDS011;4943;52.550;13.462;2023-01-08T15:28:59;6.50;;;4.50;;
9807;SDS011;4943;52.550;13.462;2023-01-08T15:31:29;7.13;;;4.80;;